createdAt,value
2019-02-19T00:00:52.986Z,124.33
2019-02-19T00:03:20.921Z,123.40
2019-02-19T00:05:49.045Z,125.63
2019-02-19T00:08:17.165Z,125.07
2019-02-19T00:10:45.348Z,130.37
2019-02-19T00:13:15.047Z,128.90
2019-02-19T00:15:43.129Z,128.90
2019-02-19T00:18:11.049Z,130.30
2019-02-19T00:20:39.238Z,131.17
2019-02-19T00:23:07.165Z,131.90
2019-02-19T00:25:35.392Z,132.60
2019-02-19T00:28:03.311Z,128.83
2019-02-19T00:30:31.237Z,127.67
2019-02-19T00:32:59.274Z,131.83
2019-02-19T00:35:27.166Z,130.33
2019-02-19T00:37:55.132Z,131.57
2019-02-19T00:40:23.209Z,133.30
2019-02-19T00:42:51.272Z,136.27
2019-02-19T00:45:19.451Z,139.57
2019-02-19T00:47:47.596Z,139.70
2019-02-19T00:50:15.584Z,141.90
2019-02-19T00:52:43.898Z,132.17
2019-02-19T00:55:11.920Z,137.70
2019-02-19T00:57:39.913Z,133.10
2019-02-19T01:00:08.810Z,132.53
2019-02-19T01:02:36.837Z,130.77
2019-02-19T01:05:05.429Z,132.30
2019-02-19T01:07:33.389Z,123.00
2019-02-19T01:10:01.951Z,126.27
2019-02-19T01:12:29.922Z,126.33
2019-02-19T01:14:58.014Z,128.93
2019-02-19T01:17:26.188Z,124.53
2019-02-19T01:19:55.259Z,127.50
2019-02-19T01:22:23.169Z,132.70
2019-02-19T01:24:51.172Z,133.40
2019-02-19T01:27:19.133Z,131.27
2019-02-19T01:29:47.183Z,126.97
2019-02-19T01:32:15.230Z,130.20
2019-02-19T01:34:44.763Z,133.53
2019-02-19T01:37:12.721Z,134.27
2019-02-19T01:39:41.084Z,128.63
2019-02-19T01:42:09.760Z,136.27
2019-02-19T01:44:39.632Z,129.53
2019-02-19T01:47:07.792Z,130.73
2019-02-19T01:49:35.852Z,132.67
2019-02-19T01:52:03.949Z,133.90
2019-02-19T01:54:32.098Z,135.03
2019-02-19T01:57:00.207Z,129.83
2019-02-19T01:59:28.355Z,129.67
2019-02-19T02:01:57.841Z,129.97
2019-02-19T02:04:25.829Z,136.30
2019-02-19T02:06:53.812Z,134.03
2019-02-19T02:09:21.897Z,132.17
2019-02-19T02:11:50.065Z,138.17
2019-02-19T02:14:18.117Z,135.07
2019-02-19T02:16:46.136Z,137.17
2019-02-19T02:19:15.357Z,127.73
2019-02-19T02:21:43.284Z,132.80
2019-02-19T02:24:11.503Z,131.30
2019-02-19T02:26:39.523Z,129.17
2019-02-19T02:29:07.744Z,133.10
2019-02-19T02:31:35.974Z,134.13
2019-02-19T02:34:03.866Z,132.20
2019-02-19T02:36:31.782Z,130.87
2019-02-19T02:39:03.404Z,133.90
2019-02-19T02:41:31.413Z,135.90
2019-02-19T02:43:59.591Z,136.93
2019-02-19T02:46:27.476Z,137.27
2019-02-19T02:48:55.560Z,134.10
2019-02-19T02:51:23.530Z,141.13
2019-02-19T02:53:52.712Z,140.10
2019-02-19T02:56:20.584Z,138.30
2019-02-19T02:58:49.288Z,141.17
2019-02-19T03:01:17.250Z,136.60
2019-02-19T03:03:45.233Z,139.03
2019-02-19T03:06:21.831Z,147.30
2019-02-19T03:08:49.772Z,132.83
2019-02-19T03:11:17.999Z,138.03
2019-02-19T03:13:45.988Z,142.13
2019-02-19T03:16:14.052Z,136.43
2019-02-19T03:18:41.981Z,136.40
2019-02-19T03:21:09.888Z,140.03
2019-02-19T03:23:37.988Z,134.30
2019-02-19T03:26:05.857Z,132.43
2019-02-19T03:28:33.689Z,142.50
2019-02-19T03:31:01.567Z,134.90
2019-02-19T03:33:29.429Z,142.80
2019-02-19T03:35:57.375Z,139.27
2019-02-19T03:38:25.274Z,135.93
2019-02-19T03:40:53.199Z,139.60
2019-02-19T03:43:21.127Z,137.00
2019-02-19T03:45:48.993Z,134.67
2019-02-19T03:48:17.754Z,143.40
2019-02-19T03:50:45.712Z,137.67
2019-02-19T03:53:13.696Z,139.77
2019-02-19T03:55:43.672Z,150.43
2019-02-19T03:58:11.641Z,137.80
2019-02-19T04:00:39.428Z,131.83
2019-02-19T04:03:07.524Z,137.43
2019-02-19T04:05:35.592Z,136.23
2019-02-19T04:08:03.503Z,135.67
2019-02-19T04:10:31.358Z,138.37
2019-02-19T04:12:59.381Z,140.93
2019-02-19T04:15:27.303Z,151.10
2019-02-19T04:17:55.259Z,148.40
2019-02-19T04:20:23.277Z,144.77
2019-02-19T04:22:51.323Z,147.43
2019-02-19T04:25:19.143Z,142.17
2019-02-19T04:27:48.756Z,146.17
2019-02-19T04:30:17.384Z,143.57
2019-02-19T04:32:45.649Z,147.83
2019-02-19T04:35:14.822Z,146.57
2019-02-19T04:37:42.729Z,144.77
2019-02-19T04:40:10.781Z,142.87
2019-02-19T04:42:38.840Z,144.03
2019-02-19T04:45:07.044Z,147.67
2019-02-19T04:47:35.249Z,151.63
2019-02-19T04:50:04.288Z,148.57
2019-02-19T04:52:32.643Z,153.83
2019-02-19T04:55:01.624Z,160.43
2019-02-19T04:57:29.730Z,149.73
2019-02-19T04:59:57.999Z,148.93
2019-02-19T05:02:26.297Z,149.27
2019-02-19T05:04:58.174Z,151.93
2019-02-19T05:07:28.691Z,146.70
2019-02-19T05:10:03.672Z,151.20
2019-02-19T05:12:45.300Z,147.27
2019-02-19T05:15:10.539Z,151.13
2019-02-19T05:17:53.145Z,158.17
2019-02-19T05:20:32.368Z,150.37
2019-02-19T05:23:30.609Z,151.83
2019-02-19T05:26:15.183Z,148.80
2019-02-19T05:28:54.666Z,155.57
2019-02-19T05:31:38.876Z,149.30
2019-02-19T05:34:06.766Z,149.90
2019-02-19T05:36:35.621Z,148.27
2019-02-19T05:39:07.760Z,155.60
2019-02-19T05:41:37.053Z,156.23
2019-02-19T05:44:05.257Z,157.57
2019-02-19T05:46:35.433Z,152.37
2019-02-19T05:49:03.514Z,153.40
2019-02-19T05:51:31.700Z,159.40
2019-02-19T05:53:59.650Z,152.33
2019-02-19T05:56:28.198Z,156.17
2019-02-19T05:58:59.263Z,158.50
2019-02-19T06:01:30.863Z,156.47
2019-02-19T06:03:58.875Z,157.83
2019-02-19T06:06:26.894Z,160.90
2019-02-19T06:08:55.020Z,158.13
2019-02-19T06:11:22.630Z,155.87
2019-02-19T06:13:50.228Z,157.03
2019-02-19T06:16:17.826Z,157.37
2019-02-19T06:18:45.453Z,156.27
2019-02-19T06:21:13.031Z,164.30
2019-02-19T06:23:40.724Z,157.10
2019-02-19T06:26:08.410Z,155.40
2019-02-19T06:28:35.892Z,156.23
2019-02-19T06:31:03.592Z,158.20
2019-02-19T06:33:31.253Z,157.27
2019-02-19T06:35:58.737Z,160.03
2019-02-19T06:38:26.442Z,157.63
2019-02-19T06:40:54.012Z,163.77
2019-02-19T06:43:21.621Z,162.70
2019-02-19T06:45:49.580Z,159.03
2019-02-19T06:48:17.401Z,155.60
2019-02-19T06:50:45.018Z,160.57
2019-02-19T06:53:12.639Z,156.73
2019-02-19T06:55:40.337Z,162.67
2019-02-19T06:58:07.932Z,151.87
2019-02-19T07:00:36.178Z,155.70
2019-02-19T07:03:17.840Z,155.50
2019-02-19T07:05:45.498Z,153.17
2019-02-19T07:08:13.186Z,157.63
2019-02-19T07:10:40.732Z,157.43
2019-02-19T07:13:08.582Z,149.87
2019-02-19T07:15:36.183Z,153.57
2019-02-19T07:18:03.936Z,158.23
2019-02-19T07:20:31.988Z,157.17
2019-02-19T07:22:59.594Z,165.17
2019-02-19T07:25:28.392Z,160.13
2019-02-19T07:27:56.157Z,163.00
2019-02-19T07:30:23.850Z,158.67
2019-02-19T07:32:51.557Z,156.57
2019-02-19T07:35:20.808Z,160.97
2019-02-19T07:38:08.448Z,156.43
2019-02-19T07:40:41.146Z,156.73
2019-02-19T07:43:24.424Z,154.83
2019-02-19T07:45:56.256Z,156.83
2019-02-19T07:48:29.418Z,152.63
2019-02-19T07:50:59.040Z,146.67
2019-02-19T07:53:30.417Z,148.63
2019-02-19T07:56:00.578Z,140.80
2019-02-19T07:58:31.308Z,126.70
2019-02-19T08:00:59.297Z,86.47
2019-02-19T08:03:27.301Z,77.77
2019-02-19T08:05:55.259Z,83.43
2019-02-19T08:08:23.147Z,76.93
2019-02-19T08:10:51.084Z,71.00
2019-02-19T08:13:18.942Z,69.13
2019-02-19T08:15:46.874Z,68.60
2019-02-19T08:18:14.638Z,68.77
2019-02-19T08:20:42.480Z,67.67
2019-02-19T08:23:10.254Z,64.90
2019-02-19T08:25:38.011Z,61.83
2019-02-19T08:28:05.860Z,64.03
2019-02-19T08:30:33.562Z,59.17
2019-02-19T08:33:01.236Z,56.43
2019-02-19T08:35:29.044Z,59.53
2019-02-19T08:37:57.364Z,52.73
2019-02-19T08:40:25.094Z,54.60
2019-02-19T08:42:53.303Z,55.33
2019-02-19T08:45:21.327Z,53.30
2019-02-19T08:47:49.698Z,53.60
2019-02-19T08:50:18.568Z,51.23
2019-02-19T08:52:49.778Z,49.20
2019-02-19T08:55:18.355Z,48.97
2019-02-19T08:57:46.417Z,47.90
2019-02-19T09:00:14.672Z,48.13
2019-02-19T09:02:42.698Z,47.80
2019-02-19T09:05:11.072Z,47.13
2019-02-19T09:07:40.498Z,44.83
2019-02-19T09:10:11.596Z,43.37
2019-02-19T09:12:39.986Z,40.73
2019-02-19T09:15:08.736Z,41.40
2019-02-19T09:17:36.460Z,38.67
2019-02-19T09:20:04.777Z,39.50
2019-02-19T09:22:32.356Z,38.47
2019-02-19T09:25:00.058Z,36.73
2019-02-19T09:27:29.690Z,37.10
2019-02-19T09:29:57.308Z,35.63
2019-02-19T09:32:25.253Z,33.80
2019-02-19T09:34:53.279Z,34.10
2019-02-19T09:37:21.426Z,33.77
2019-02-19T09:39:49.069Z,35.80
2019-02-19T09:42:16.767Z,32.93
2019-02-19T09:44:44.370Z,32.47
2019-02-19T09:47:15.179Z,32.17
2019-02-19T09:49:42.828Z,32.07
2019-02-19T09:52:10.595Z,30.77
2019-02-19T09:54:39.665Z,30.17
2019-02-19T09:57:07.608Z,29.80
2019-02-19T09:59:35.457Z,28.63
2019-02-19T10:02:05.470Z,30.43
2019-02-19T10:04:33.319Z,29.47
2019-02-19T10:07:01.334Z,28.57
2019-02-19T10:09:29.336Z,29.80
2019-02-19T10:11:57.446Z,29.10
2019-02-19T10:14:25.476Z,28.37
2019-02-19T10:16:56.785Z,29.20
2019-02-19T10:19:26.031Z,29.07
2019-02-19T10:22:09.249Z,28.27
2019-02-19T10:25:00.558Z,28.33
2019-02-19T10:27:50.890Z,25.97
2019-02-19T10:30:22.592Z,26.13
2019-02-19T10:32:50.668Z,26.43
2019-02-19T10:35:19.038Z,26.00
2019-02-19T10:37:52.972Z,27.47
2019-02-19T10:40:21.209Z,26.17
2019-02-19T10:42:49.297Z,27.30
2019-02-19T10:45:17.985Z,26.43
2019-02-19T10:47:46.469Z,26.07
2019-02-19T10:50:14.735Z,25.83
2019-02-19T10:52:43.023Z,26.77
2019-02-19T10:55:11.653Z,26.00
2019-02-19T10:57:39.348Z,23.67
2019-02-19T11:00:10.556Z,23.10
2019-02-19T11:02:38.231Z,23.30
2019-02-19T11:05:05.942Z,22.53
2019-02-19T11:07:33.707Z,22.47
2019-02-19T11:10:02.034Z,22.33
2019-02-19T11:12:29.724Z,22.53
2019-02-19T11:14:57.320Z,22.33
2019-02-19T11:17:25.181Z,21.63
2019-02-19T11:19:52.896Z,21.63
2019-02-19T11:22:20.656Z,21.53
2019-02-19T11:24:48.391Z,20.50
2019-02-19T11:27:16.745Z,20.47
2019-02-19T11:29:44.549Z,20.33
2019-02-19T11:32:12.273Z,20.43
2019-02-19T11:34:40.197Z,19.70
2019-02-19T11:37:08.244Z,19.63
2019-02-19T11:39:36.088Z,20.70
2019-02-19T11:42:04.868Z,19.07
2019-02-19T11:44:32.544Z,20.17
2019-02-19T11:47:00.128Z,19.43
2019-02-19T11:49:27.769Z,19.83
2019-02-19T11:51:55.575Z,19.00
2019-02-19T11:54:23.310Z,18.83
2019-02-19T11:56:51.040Z,17.97
2019-02-19T11:59:18.844Z,19.07
2019-02-19T12:01:46.594Z,20.30
2019-02-19T12:04:14.280Z,19.20
2019-02-19T12:06:42.253Z,19.23
2019-02-19T12:09:10.294Z,18.87
2019-02-19T12:11:38.293Z,19.13
2019-02-19T12:14:07.601Z,19.03
2019-02-19T12:16:35.472Z,18.03
2019-02-19T12:19:07.546Z,20.07
2019-02-19T12:21:35.411Z,18.03
2019-02-19T12:24:03.246Z,19.20
2019-02-19T12:26:34.323Z,20.47
2019-02-19T12:29:02.170Z,19.13
2019-02-19T12:31:29.828Z,19.80
2019-02-19T12:33:57.598Z,19.90
2019-02-19T12:36:32.478Z,19.07
2019-02-19T12:39:01.677Z,19.67
2019-02-19T12:41:29.491Z,18.40
2019-02-19T12:43:57.590Z,19.40
2019-02-19T12:46:25.487Z,19.20
2019-02-19T12:48:54.871Z,19.60
2019-02-19T12:51:26.504Z,18.97
2019-02-19T12:53:52.682Z,21.00
2019-02-19T12:56:20.789Z,19.23
2019-02-19T12:58:48.929Z,19.23
2019-02-19T13:01:19.097Z,19.90
2019-02-19T13:03:47.158Z,18.67
2019-02-19T13:06:16.146Z,20.47
2019-02-19T13:08:46.797Z,19.40
2019-02-19T13:11:16.458Z,19.23
2019-02-19T13:13:44.834Z,18.77
2019-02-19T13:16:13.060Z,19.50
2019-02-19T13:18:41.438Z,18.87
2019-02-19T13:21:09.439Z,19.03
2019-02-19T13:23:37.235Z,18.97
2019-02-19T13:26:05.402Z,18.80
2019-02-19T13:28:33.232Z,19.50
2019-02-19T13:31:00.829Z,19.27
2019-02-19T13:33:28.806Z,18.67
2019-02-19T13:35:56.387Z,19.90
2019-02-19T13:38:23.936Z,19.10
2019-02-19T13:40:51.594Z,18.37
2019-02-19T13:43:19.329Z,19.23
2019-02-19T13:45:47.184Z,19.30
2019-02-19T13:48:14.839Z,19.13
2019-02-19T13:50:42.522Z,19.57
2019-02-19T13:53:14.558Z,19.33
2019-02-19T13:55:45.701Z,18.83
2019-02-19T13:58:13.403Z,18.60
2019-02-19T14:00:42.246Z,18.77
2019-02-19T14:03:09.820Z,18.97
2019-02-19T14:05:37.546Z,17.33
2019-02-19T14:08:13.986Z,19.13
2019-02-19T14:10:36.238Z,19.80
2019-02-19T14:13:04.032Z,18.63
2019-02-19T14:15:43.750Z,19.30
2019-02-19T14:18:12.211Z,19.20
2019-02-19T14:20:57.824Z,18.37
2019-02-19T14:23:43.353Z,18.40
2019-02-19T14:26:33.378Z,18.67
2019-02-19T14:29:26.152Z,18.93
2019-02-19T14:32:13.159Z,18.60
2019-02-19T14:34:59.536Z,17.93
2019-02-19T14:37:43.690Z,17.53
2019-02-19T14:40:49.142Z,18.43
2019-02-19T14:43:33.187Z,18.57
2019-02-19T14:46:23.141Z,19.47
2019-02-19T14:49:18.863Z,18.90
2019-02-19T14:52:08.662Z,18.40
2019-02-19T14:55:07.354Z,18.47
2019-02-19T14:57:44.071Z,19.13
2019-02-19T15:00:31.869Z,19.07
2019-02-19T15:03:31.140Z,18.50
2019-02-19T15:06:30.242Z,19.97
2019-02-19T15:09:08.832Z,20.17
2019-02-19T15:11:56.292Z,19.70
2019-02-19T15:14:43.816Z,21.87
2019-02-19T15:17:33.936Z,20.50
2019-02-19T15:20:18.683Z,20.90
2019-02-19T15:23:05.404Z,23.85
2019-02-19T15:26:10.547Z,21.53
2019-02-19T15:28:52.617Z,20.83
2019-02-19T15:31:48.698Z,22.10
2019-02-19T15:34:37.289Z,21.60
2019-02-19T15:37:33.314Z,21.23
2019-02-19T15:40:19.192Z,22.37
2019-02-19T15:43:09.334Z,22.37
2019-02-19T15:46:08.423Z,22.40
2019-02-19T15:49:14.652Z,21.97
2019-02-19T15:52:18.005Z,21.97
2019-02-19T15:55:22.013Z,22.30
2019-02-19T15:58:09.040Z,23.13
2019-02-19T16:01:06.535Z,22.73
2019-02-19T16:04:00.267Z,22.70
2019-02-19T16:06:55.286Z,23.50
2019-02-19T16:09:42.123Z,24.10
2019-02-19T16:12:32.039Z,23.60
2019-02-19T16:15:15.113Z,24.47
2019-02-19T16:18:05.508Z,24.53
2019-02-19T16:20:55.625Z,25.30
2019-02-19T16:23:44.078Z,24.30
2019-02-19T16:26:31.449Z,24.63
2019-02-19T16:29:26.461Z,25.87
2019-02-19T16:32:22.699Z,24.37
2019-02-19T16:35:17.890Z,24.03
2019-02-19T16:38:03.885Z,25.70
2019-02-19T16:40:39.782Z,27.10
2019-02-19T16:43:33.160Z,24.47
2019-02-19T16:46:23.740Z,24.20
2019-02-19T16:49:11.384Z,25.20
2019-02-19T16:52:11.018Z,25.10
2019-02-19T16:54:50.848Z,25.10
2019-02-19T16:57:32.561Z,25.97
2019-02-19T17:00:26.499Z,25.40
2019-02-19T17:03:10.441Z,25.43
2019-02-19T17:05:59.442Z,24.47
2019-02-19T17:08:56.586Z,23.77
2019-02-19T17:11:45.030Z,25.97
2019-02-19T17:14:36.685Z,25.23
2019-02-19T17:17:13.940Z,25.07
2019-02-19T17:20:26.247Z,25.83
2019-02-19T17:23:02.503Z,25.33
2019-02-19T17:26:00.657Z,25.67
2019-02-19T17:28:51.390Z,26.90
2019-02-19T17:31:33.808Z,28.70
2019-02-19T17:34:10.624Z,27.27
2019-02-19T17:36:52.665Z,28.43
2019-02-19T17:39:57.928Z,28.10
2019-02-19T17:42:39.920Z,28.60
2019-02-19T17:45:25.944Z,28.77
2019-02-19T17:48:28.559Z,28.93
2019-02-19T17:51:21.322Z,28.60
2019-02-19T17:54:27.016Z,29.30
2019-02-19T17:57:17.050Z,29.57
2019-02-19T18:00:06.070Z,30.27
2019-02-19T18:02:52.781Z,30.20
2019-02-19T18:05:52.182Z,29.97
2019-02-19T18:08:32.365Z,30.43
2019-02-19T18:11:18.727Z,31.17
2019-02-19T18:14:06.483Z,30.83
2019-02-19T18:17:01.961Z,30.07
2019-02-19T18:19:30.303Z,30.87
2019-02-19T18:21:58.720Z,30.07
2019-02-19T18:24:27.894Z,31.07
2019-02-19T18:26:56.062Z,31.53
2019-02-19T18:29:25.568Z,32.10
2019-02-19T18:32:01.611Z,32.97
2019-02-19T18:34:31.614Z,33.37
2019-02-19T18:37:37.661Z,32.27
2019-02-19T18:40:05.726Z,33.50
2019-02-19T18:42:38.178Z,34.83
2019-02-19T18:45:14.188Z,35.23
2019-02-19T18:47:46.243Z,34.07
2019-02-19T18:50:14.761Z,36.80
2019-02-19T18:52:42.899Z,36.67
2019-02-19T18:55:12.059Z,37.83
2019-02-19T18:57:40.303Z,37.27
2019-02-19T19:00:13.195Z,37.43
2019-02-19T19:02:49.329Z,38.80
2019-02-19T19:05:32.691Z,38.30
2019-02-19T19:07:55.886Z,39.17
2019-02-19T19:10:44.695Z,40.10
2019-02-19T19:13:17.856Z,39.60
2019-02-19T19:15:53.290Z,40.07
2019-02-19T19:18:27.677Z,41.27
2019-02-19T19:20:56.880Z,41.57
2019-02-19T19:23:59.391Z,41.20
2019-02-19T19:30:06.895Z,40.03
2019-02-19T19:32:36.888Z,38.60
2019-02-19T19:38:08.528Z,35.70
2019-02-19T19:41:02.825Z,38.33
2019-02-19T19:44:01.142Z,35.97
2019-02-19T19:46:31.808Z,36.27
2019-02-19T19:49:01.187Z,37.40
2019-02-19T19:51:29.580Z,38.77
2019-02-19T19:54:02.316Z,38.87
2019-02-19T19:56:34.389Z,40.27
2019-02-19T19:59:10.457Z,42.33
2019-02-19T20:01:48.625Z,41.77
2019-02-19T20:04:17.348Z,41.83
2019-02-19T20:06:56.978Z,42.60
2019-02-19T20:09:29.758Z,41.97
2019-02-19T20:12:28.749Z,40.07
2019-02-19T20:15:03.689Z,38.60
2019-02-19T20:17:46.422Z,37.63
2019-02-19T20:20:20.231Z,39.03
2019-02-19T20:22:50.576Z,38.70
2019-02-19T20:25:19.276Z,40.13
2019-02-19T20:27:49.803Z,38.60
2019-02-19T20:30:22.217Z,37.23
2019-02-19T20:32:51.266Z,39.13
2019-02-19T20:35:41.217Z,38.20
2019-02-19T20:38:06.025Z,37.40
2019-02-19T20:40:36.381Z,38.27
2019-02-19T20:43:11.950Z,35.40
2019-02-19T20:45:42.229Z,36.03
2019-02-19T20:48:10.525Z,35.63
2019-02-19T20:50:42.393Z,33.63
2019-02-19T20:53:16.010Z,33.23
2019-02-19T20:55:57.418Z,32.53
2019-02-19T21:01:14.704Z,31.07
2019-02-19T21:03:44.140Z,31.90
2019-02-19T21:06:21.939Z,31.87
2019-02-19T21:08:52.367Z,31.77
2019-02-19T21:11:35.592Z,32.23
2019-02-19T21:14:20.624Z,30.57
2019-02-19T21:16:52.187Z,31.57
2019-02-19T21:19:26.586Z,30.60
2019-02-19T21:21:56.727Z,30.73
2019-02-19T21:24:34.866Z,32.43
2019-02-19T21:27:08.802Z,31.30
2019-02-19T21:29:47.530Z,30.93
2019-02-19T21:32:23.022Z,30.63
2019-02-19T21:34:55.164Z,30.20
2019-02-19T21:37:50.341Z,31.00
2019-02-19T21:40:44.227Z,31.00
2019-02-19T21:43:14.319Z,30.97
2019-02-19T21:45:47.058Z,30.63
2019-02-19T21:48:21.489Z,31.27
2019-02-19T21:50:50.813Z,30.93
2019-02-19T21:53:30.439Z,30.27
2019-02-19T21:56:04.280Z,31.10
2019-02-19T21:58:44.253Z,31.43
2019-02-19T22:01:12.464Z,32.47
2019-02-19T22:03:41.409Z,31.83
2019-02-19T22:06:09.888Z,32.93
2019-02-19T22:08:38.614Z,31.67
2019-02-19T22:11:10.428Z,32.07
2019-02-19T22:13:38.665Z,32.53
2019-02-19T22:16:07.572Z,31.87
2019-02-19T22:18:36.510Z,30.67
2019-02-19T22:21:19.553Z,31.53
2019-02-19T22:23:50.129Z,31.70
2019-02-19T22:26:18.929Z,32.20
2019-02-19T22:28:47.940Z,29.33
2019-02-19T22:31:16.850Z,28.63
2019-02-19T22:33:49.374Z,28.13
2019-02-19T22:36:22.391Z,29.33
2019-02-19T22:39:03.086Z,29.87
2019-02-19T22:41:35.944Z,28.87
2019-02-19T22:44:13.663Z,30.17
2019-02-19T22:46:52.660Z,28.87
2019-02-19T22:49:20.530Z,29.53
2019-02-19T22:52:12.530Z,27.23
2019-02-19T22:55:05.225Z,29.03
2019-02-19T22:57:38.308Z,28.60
2019-02-19T23:00:13.897Z,30.83
2019-02-19T23:03:07.450Z,32.57
2019-02-19T23:05:44.372Z,36.07
2019-02-19T23:08:15.492Z,35.60
2019-02-19T23:10:44.015Z,37.27
2019-02-19T23:13:19.241Z,33.77
2019-02-19T23:15:49.303Z,33.10
2019-02-19T23:18:18.085Z,37.40
2019-02-19T23:20:47.786Z,36.33
2019-02-19T23:23:21.286Z,36.27
2019-02-19T23:25:54.260Z,34.30
2019-02-19T23:28:23.301Z,35.33
2019-02-19T23:31:01.364Z,33.97
2019-02-19T23:33:40.370Z,32.30
2019-02-19T23:36:22.347Z,32.03
2019-02-19T23:39:04.739Z,27.70
2019-02-19T23:41:41.555Z,31.17
2019-02-19T23:44:09.652Z,30.63
2019-02-19T23:46:41.415Z,31.23
2019-02-19T23:49:12.310Z,29.13
2019-02-19T23:51:45.679Z,30.73
2019-02-19T23:54:14.604Z,30.73
2019-02-19T23:56:46.493Z,29.90
2019-02-19T23:59:34.483Z,30.23
